Time;durP1;ratioP1;P1;durP2;ratioP2;P2;SDS_P1;SDS_P2;PMS_P1;PMS_P2;Temp;Humidity;BMP_temperature;BMP_pressure;BME280_temperature;BME280_humidity;BME280_pressure;Samples;Min_cycle;Max_cycle;Signal;HPM_P1;HPM_P2
2022/12/23 00:02:08;;;;;;;1.07;0.47;;;;;;;-145.69;100.00;52590.94;5074822;28;20199;-83
2022/12/23 00:04:35;;;;;;;0.40;0.40;;;;;;;-145.69;100.00;52590.94;5074692;28;20213;-83
2022/12/23 00:07:01;;;;;;;0.50;0.50;;;;;;;-145.69;100.00;52630.53;5075814;28;20206;-83
2022/12/23 00:09:27;;;;;;;0.40;0.40;;;;;;;-145.69;100.00;52622.63;5076132;28;20206;-82
2022/12/23 00:17:23;;;;;;;2.10;0.40;;;;;;;-145.69;100.00;52577.06;5075805;28;20206;-83
2022/12/23 00:19:50;;;;;;;0.43;0.43;;;;;;;-145.69;100.00;52622.63;5075394;28;20202;-82
2022/12/23 00:22:16;;;;;;;0.50;0.50;;;;;;;-145.69;100.00;52602.81;5087610;28;20556;-83
2022/12/23 00:24:43;;;;;;;0.40;0.40;;;;;;;-145.69;100.00;52598.84;5074277;28;20222;-83
2022/12/23 00:27:11;;;;;;;0.40;0.40;;;;;;;-145.69;100.00;52581.03;5055188;28;20210;-84
2022/12/23 00:29:37;;;;;;;1.07;0.50;;;;;;;-145.69;100.00;52579.06;5055179;28;20203;-83
2022/12/23 00:32:04;;;;;;;0.37;0.37;;;;;;;-145.69;100.00;52575.09;5063767;28;20654;-84
2022/12/23 00:34:30;;;;;;;0.30;0.30;;;;;;;-145.69;100.00;52573.13;5075186;28;20233;-83
2022/12/23 00:36:56;;;;;;;0.63;0.50;;;;;;;-145.69;100.00;52590.94;5074672;28;20235;-83
2022/12/23 00:45:14;;;;;;;0.20;0.20;;;;;;;-145.69;100.00;52581.03;5075201;28;20573;-84
2022/12/23 00:50:24;;;;;;;0.30;0.30;;;;;;;-145.69;100.00;52553.31;5074664;28;20210;-83
2022/12/23 00:52:51;;;;;;;0.40;0.40;;;;;;;-145.69;100.00;52586.97;5074830;28;20199;-82
2022/12/23 00:55:17;;;;;;;0.37;0.37;;;;;;;-145.69;100.00;52569.16;5074387;28;20581;-84
2022/12/23 00:57:43;;;;;;;0.27;0.27;;;;;;;-145.69;100.00;52581.03;5071505;28;20279;-84
2022/12/23 01:00:12;;;;;;;1.00;0.20;;;;;;;-145.69;100.00;52606.78;5055622;28;20200;-83
2022/12/23 01:05:39;;;;;;;0.80;0.40;;;;;;;-145.69;100.00;52590.94;5074767;28;20615;-84
2022/12/23 01:08:07;;;;;;;0.40;0.40;;;;;;;-145.69;100.00;52575.09;5074289;28;20195;-84
2022/12/23 01:10:34;;;;;;;0.70;0.37;;;;;;;-145.69;100.00;52583.00;5073388;28;20191;-84
2022/12/23 01:13:01;;;;;;;0.70;0.40;;;;;;;-145.69;100.00;52575.09;5073365;28;20661;-84
2022/12/23 01:15:29;;;;;;;0.30;0.30;;;;;;;-145.69;100.00;52610.75;5072891;28;20230;-84
2022/12/23 01:17:55;;;;;;;1.03;0.30;;;;;;;-145.69;100.00;52586.97;5073896;28;20203;-85
2022/12/23 01:20:22;;;;;;;0.30;0.30;;;;;;;-145.69;100.00;52563.22;5073738;28;20206;-84
2022/12/23 01:22:49;;;;;;;0.30;0.30;;;;;;;-145.69;100.00;52555.28;5074334;28;20199;-84
2022/12/23 01:25:15;;;;;;;1.10;0.40;;;;;;;-145.69;100.00;52577.06;5073838;28;20561;-84
2022/12/23 01:27:42;;;;;;;1.50;0.40;;;;;;;-145.69;100.00;52608.75;5073720;28;20206;-84
2022/12/23 01:30:09;;;;;;;0.30;0.30;;;;;;;-145.69;100.00;52585.00;5073823;28;20195;-84
2022/12/23 01:32:37;;;;;;;0.30;0.30;;;;;;;-145.69;100.00;52583.00;5074049;28;20210;-84
2022/12/23 01:35:04;;;;;;;0.30;0.30;;;;;;;-145.69;100.00;52614.72;5073328;28;20286;-84
2022/12/23 01:37:31;;;;;;;2.27;0.50;;;;;;;-145.69;100.00;52579.06;5073567;28;20255;-84
2022/12/23 01:39:57;;;;;;;0.50;0.40;;;;;;;-145.69;100.00;52573.13;5073572;28;20202;-84
2022/12/23 01:45:14;;;;;;;1.17;0.40;;;;;;;-145.69;100.00;52577.06;5073372;28;20198;-85
2022/12/23 01:47:47;;;;;;;0.50;0.30;;;;;;;-145.69;100.00;52561.22;5073998;28;20198;-84
2022/12/23 01:50:17;;;;;;;0.30;0.30;;;;;;;-145.69;100.00;52575.09;5074144;28;20684;-84
2022/12/23 01:52:47;;;;;;;0.30;0.30;;;;;;;-145.69;100.00;52590.94;5073775;28;20565;-84
2022/12/23 01:55:16;;;;;;;0.30;0.30;;;;;;;-145.69;100.00;52598.84;5073659;28;20237;-82
2022/12/23 01:57:43;;;;;;;0.53;0.40;;;;;;;-145.69;100.00;52553.31;5074213;28;20199;-83
2022/12/23 02:05:41;;;;;;;0.40;0.40;;;;;;;-145.69;100.00;52586.97;5074079;28;20198;-83
2022/12/23 02:11:25;;;;;;;0.40;0.40;;;;;;;-145.69;100.00;52579.06;5052565;28;20205;-83
2022/12/23 02:16:59;;;;;;;1.03;0.47;;;;;;;-145.69;100.00;52590.94;5073556;28;20245;-84
2022/12/23 02:19:50;;;;;;;0.40;0.40;;;;;;;-145.69;100.00;52575.09;5073610;28;20202;-84
2022/12/23 02:22:37;;;;;;;0.30;0.30;;;;;;;-145.69;100.00;52590.94;5073949;28;20222;-84
2022/12/23 02:25:40;;;;;;;0.30;0.30;;;;;;;-145.69;100.00;52614.72;5074602;28;20744;-83
2022/12/23 02:28:25;;;;;;;0.20;0.20;;;;;;;-145.69;100.00;52575.09;5078358;28;20225;-84
2022/12/23 02:31:01;;;;;;;0.27;0.27;;;;;;;-145.69;100.00;52581.03;5081748;28;20199;-84
2022/12/23 02:33:44;;;;;;;0.40;0.40;;;;;;;-145.69;100.00;52561.22;5079493;28;20229;-84
2022/12/23 02:36:36;;;;;;;0.30;0.30;;;;;;;-145.69;100.00;52571.13;5078551;28;20229;-84
2022/12/23 02:39:07;;;;;;;0.40;0.40;;;;;;;-145.69;100.00;52586.97;5077068;28;20210;-84
2022/12/23 02:41:41;;;;;;;0.33;0.33;;;;;;;-145.69;100.00;52569.16;5078215;28;20201;-84
2022/12/23 02:44:13;;;;;;;0.27;0.27;;;;;;;-145.69;100.00;52579.06;5077446;28;20225;-84
2022/12/23 02:46:46;;;;;;;0.20;0.20;;;;;;;-145.69;100.00;52590.94;5077166;28;20207;-84
2022/12/23 02:49:18;;;;;;;0.23;0.23;;;;;;;-145.69;100.00;52575.09;5076940;28;20222;-83
2022/12/23 02:51:49;;;;;;;0.30;0.30;;;;;;;-145.69;100.00;52561.22;5064936;28;20210;-84
2022/12/23 02:54:20;;;;;;;0.20;0.20;;;;;;;-145.69;100.00;52586.97;5056515;28;20234;-84
2022/12/23 02:56:50;;;;;;;0.60;0.30;;;;;;;-145.69;100.00;52575.09;5071934;28;20202;-84
2022/12/23 02:59:20;;;;;;;0.30;0.30;;;;;;;-145.69;100.00;52592.91;5076301;28;20249;-84
2022/12/23 03:01:50;;;;;;;0.70;0.40;;;;;;;-145.69;100.00;52567.16;5076079;28;20673;-84
2022/12/23 03:04:16;;;;;;;0.53;0.20;;;;;;;-145.69;100.00;52547.38;5076366;28;20199;-84
2022/12/23 03:06:45;;;;;;;0.30;0.30;;;;;;;-145.69;100.00;52583.00;5076596;28;20678;-83
2022/12/23 03:09:23;;;;;;;0.40;0.40;;;;;;;-145.69;100.00;52567.16;5076502;28;20199;-84
2022/12/23 03:11:56;;;;;;;0.30;0.30;;;;;;;-145.69;100.00;52579.06;5076350;28;20198;-85
2022/12/23 03:14:39;;;;;;;0.43;0.40;;;;;;;-145.69;100.00;52594.91;5076302;28;20245;-84
2022/12/23 03:17:20;;;;;;;0.20;0.20;;;;;;;-145.69;100.00;52547.38;5076362;28;20554;-83
2022/12/23 03:19:53;;;;;;;0.40;0.30;;;;;;;-145.69;100.00;52575.09;5076894;28;20203;-84
2022/12/23 03:22:24;;;;;;;0.37;0.37;;;;;;;-145.69;100.00;52571.13;5077023;28;20194;-84
2022/12/23 03:24:55;;;;;;;1.80;0.30;;;;;;;-145.69;100.00;52563.22;5077965;28;20213;-83
2022/12/23 03:27:27;;;;;;;0.30;0.30;;;;;;;-145.69;100.00;52590.94;5078319;28;20199;-83
2022/12/23 03:29:57;;;;;;;0.30;0.30;;;;;;;-145.69;100.00;52563.22;5077652;28;20237;-83
2022/12/23 03:32:29;;;;;;;0.20;0.20;;;;;;;-145.69;100.00;52573.13;5077676;28;20199;-83
2022/12/23 03:34:59;;;;;;;0.90;0.33;;;;;;;-145.69;100.00;52555.28;5077813;28;20252;-83
2022/12/23 03:37:28;;;;;;;0.30;0.30;;;;;;;-145.69;100.00;52527.56;5076631;28;20243;-80
2022/12/23 03:40:00;;;;;;;0.30;0.30;;;;;;;-145.69;100.00;52543.41;5078119;28;20654;-83
2022/12/23 03:42:30;;;;;;;0.20;0.20;;;;;;;-145.69;100.00;52557.28;5078460;28;20202;-83
2022/12/23 03:44:59;;;;;;;0.70;0.30;;;;;;;-145.69;100.00;52559.25;5077658;28;20650;-83
2022/12/23 03:47:30;;;;;;;0.25;0.25;;;;;;;-145.69;100.00;52567.16;5076364;28;20202;-83
2022/12/23 03:50:02;;;;;;;0.40;0.40;;;;;;;-145.69;100.00;52571.13;5077968;28;20199;-84
2022/12/23 03:52:33;;;;;;;0.25;0.25;;;;;;;-145.69;100.00;52539.44;5075590;28;20218;-83
2022/12/23 03:55:04;;;;;;;0.53;0.30;;;;;;;-145.69;100.00;52598.84;5077404;28;20222;-85
2022/12/23 03:57:38;;;;;;;0.30;0.30;;;;;;;-145.69;100.00;52555.28;5076272;28;20198;-85
2022/12/23 04:00:06;;;;;;;0.40;0.40;;;;;;;-145.69;100.00;52537.47;5075817;28;20195;-85
2022/12/23 04:02:41;;;;;;;0.30;0.30;;;;;;;-145.69;100.00;52545.38;5075254;28;20257;-84
2022/12/23 04:05:19;;;;;;;0.30;0.30;;;;;;;-145.69;100.00;52579.06;5075476;28;20203;-85
2022/12/23 04:07:50;;;;;;;0.40;0.40;;;;;;;-145.69;100.00;52559.25;5075023;28;20199;-84
2022/12/23 04:10:17;;;;;;;0.30;0.30;;;;;;;-145.69;100.00;52616.69;5075084;28;20217;-84
2022/12/23 04:12:44;;;;;;;0.30;0.30;;;;;;;-145.69;100.00;52575.09;5074736;28;20213;-85
2022/12/23 04:15:10;;;;;;;0.47;0.40;;;;;;;-145.69;100.00;52567.16;5074011;28;20245;-84
2022/12/23 04:17:38;;;;;;;0.80;0.30;;;;;;;-145.69;100.00;52557.28;5073426;28;20198;-85
2022/12/23 04:20:07;;;;;;;0.30;0.30;;;;;;;-145.69;100.00;52561.22;5074344;28;20194;-84
2022/12/23 04:22:33;;;;;;;0.30;0.30;;;;;;;-145.69;100.00;52575.09;5074900;28;20199;-84
2022/12/23 04:25:00;;;;;;;0.40;0.40;;;;;;;-145.69;100.00;52579.06;5074641;28;20203;-84
2022/12/23 04:27:26;;;;;;;0.30;0.30;;;;;;;-145.69;100.00;52606.78;5074502;28;20713;-83
2022/12/23 04:29:53;;;;;;;0.40;0.40;;;;;;;-145.69;100.00;52551.31;5074747;28;20543;-84
2022/12/23 04:32:19;;;;;;;0.45;0.30;;;;;;;-145.69;100.00;52575.09;5075076;28;20209;-84
2022/12/23 04:34:47;;;;;;;0.30;0.30;;;;;;;-145.69;100.00;52586.97;5074807;28;20229;-84
2022/12/23 04:37:13;;;;;;;0.47;0.40;;;;;;;-145.69;100.00;52571.13;5074238;28;20701;-84
2022/12/23 04:39:40;;;;;;;1.80;0.40;;;;;;;-145.69;100.00;52555.28;5074196;28;20206;-84
2022/12/23 04:42:06;;;;;;;0.30;0.30;;;;;;;-145.69;100.00;52606.78;5074308;28;20203;-85
2022/12/23 04:44:33;;;;;;;0.50;0.50;;;;;;;-145.69;100.00;52553.31;5073754;28;20541;-84
2022/12/23 04:46:59;;;;;;;0.40;0.40;;;;;;;-145.69;100.00;52590.94;5056640;28;20570;-83
2022/12/23 04:49:26;;;;;;;0.53;0.50;;;;;;;-145.69;100.00;52614.72;5054179;28;20196;-84
2022/12/23 04:51:53;;;;;;;0.50;0.43;;;;;;;-145.69;100.00;52594.91;5054227;28;20286;-84
2022/12/23 04:54:20;;;;;;;0.40;0.40;;;;;;;-145.69;100.00;52604.81;5069365;28;20224;-84
2022/12/23 04:56:46;;;;;;;0.40;0.40;;;;;;;-145.69;100.00;52573.13;5073961;28;20198;-84
2022/12/23 04:59:13;;;;;;;0.80;0.60;;;;;;;-145.69;100.00;52583.00;5074122;28;20198;-84
2022/12/23 05:01:41;;;;;;;0.40;0.40;;;;;;;-145.69;100.00;52575.09;5074242;28;20205;-84
2022/12/23 05:04:07;;;;;;;0.40;0.40;;;;;;;-145.69;100.00;52602.81;5073684;28;20235;-84
2022/12/23 05:06:34;;;;;;;0.40;0.40;;;;;;;-145.69;100.00;52563.22;5073781;28;20210;-84
2022/12/23 05:09:01;;;;;;;0.50;0.50;;;;;;;-145.69;100.00;52598.84;5073639;28;20198;-84
2022/12/23 05:11:28;;;;;;;0.50;0.50;;;;;;;-145.69;100.00;52596.88;5074025;28;20199;-83
2022/12/23 05:13:55;;;;;;;1.43;0.40;;;;;;;-145.69;100.00;52600.84;5074382;28;20199;-83
2022/12/23 05:16:21;;;;;;;0.50;0.50;;;;;;;-145.69;100.00;52614.72;5072929;28;20707;-84
2022/12/23 05:18:48;;;;;;;0.73;0.50;;;;;;;-145.69;100.00;52569.16;5073665;28;20198;-84
2022/12/23 05:21:15;;;;;;;0.40;0.40;;;;;;;-145.69;100.00;52594.91;5073834;28;20195;-84
2022/12/23 05:23:41;;;;;;;0.77;0.60;;;;;;;-145.69;100.00;52604.81;5073501;28;20201;-83
2022/12/23 05:26:10;;;;;;;0.40;0.40;;;;;;;-145.69;100.00;52588.97;5074559;28;20203;-84
2022/12/23 05:28:36;;;;;;;0.50;0.50;;;;;;;-145.69;100.00;52614.72;5074250;28;20293;-84
2022/12/23 05:31:04;;;;;;;1.00;0.70;;;;;;;-145.69;100.00;52598.84;5074661;28;20194;-83
2022/12/23 05:33:31;;;;;;;1.05;0.80;;;;;;;-145.69;100.00;52586.97;5073988;28;20228;-84
2022/12/23 05:35:58;;;;;;;0.47;0.40;;;;;;;-145.69;100.00;52610.75;5073153;28;20222;-85
2022/12/23 05:38:25;;;;;;;0.67;0.50;;;;;;;-145.69;100.00;52586.97;5073485;28;20199;-84
2022/12/23 05:40:52;;;;;;;0.40;0.40;;;;;;;-145.69;100.00;52583.00;5073361;28;20206;-84
2022/12/23 05:43:20;;;;;;;0.50;0.43;;;;;;;-145.69;100.00;52590.94;5072975;28;20201;-84
2022/12/23 05:45:47;;;;;;;0.20;0.20;;;;;;;-145.69;100.00;52628.56;5072754;28;20195;-84
2022/12/23 05:48:13;;;;;;;0.40;0.40;;;;;;;-145.69;100.00;52642.44;5073225;28;20198;-84
2022/12/23 05:50:40;;;;;;;0.40;0.40;;;;;;;-145.69;100.00;52604.81;5073314;28;20213;-84
2022/12/23 05:53:07;;;;;;;0.50;0.40;;;;;;;-145.69;100.00;52624.59;5072515;28;20691;-83
2022/12/23 05:55:34;;;;;;;1.73;0.50;;;;;;;-145.69;100.00;52586.97;5074666;28;20245;-83
2022/12/23 05:58:00;;;;;;;3.93;0.60;;;;;;;-145.69;100.00;52590.94;5077360;28;20210;-83
2022/12/23 06:00:28;;;;;;;3.03;2.17;;;;;;;-145.69;100.00;52630.53;5075421;28;20622;-84
2022/12/23 06:02:55;;;;;;;4.97;1.88;;;;;;;-145.69;100.00;52606.78;5075868;28;20310;-84
2022/12/23 06:05:22;;;;;;;3.83;2.13;;;;;;;-145.69;100.00;52602.81;5074707;28;20569;-83
2022/12/23 06:07:48;;;;;;;2.70;1.97;;;;;;;-145.69;100.00;52573.13;5074029;28;20199;-84
2022/12/23 06:10:15;;;;;;;3.53;2.27;;;;;;;-145.69;100.00;52590.94;5073944;28;20217;-83
2022/12/23 06:12:41;;;;;;;3.80;2.50;;;;;;;-145.69;100.00;52632.53;5074096;28;20206;-84
2022/12/23 06:15:08;;;;;;;3.33;2.20;;;;;;;-145.69;100.00;52590.94;5073937;28;20230;-84
2022/12/23 06:17:36;;;;;;;2.87;1.83;;;;;;;-145.69;100.00;52614.72;5073015;28;20209;-84
2022/12/23 06:20:03;;;;;;;3.07;1.30;;;;;;;-145.69;100.00;52634.50;5072997;28;20199;-83
2022/12/23 06:22:30;;;;;;;1.30;1.20;;;;;;;-145.69;100.00;52575.09;5072928;28;20206;-84
2022/12/23 06:24:56;;;;;;;3.03;1.43;;;;;;;-145.69;100.00;52626.59;5073063;28;20221;-84
2022/12/23 06:27:23;;;;;;;1.10;0.90;;;;;;;-145.69;100.00;52612.72;5075129;28;20199;-83
2022/12/23 06:29:49;;;;;;;1.40;0.80;;;;;;;-145.69;100.00;52614.72;5075944;28;20210;-84
2022/12/23 06:32:15;;;;;;;1.23;1.02;;;;;;;-145.69;100.00;52638.47;5077417;28;20194;-84
2022/12/23 06:34:43;;;;;;;15.67;1.87;;;;;;;-145.69;100.00;52583.00;5077740;28;20653;-84
2022/12/23 06:37:10;;;;;;;6.33;1.67;;;;;;;-145.69;100.00;52596.88;5075164;28;20256;-84
2022/12/23 06:39:36;;;;;;;3.57;1.80;;;;;;;-145.69;100.00;52594.91;5075403;28;20206;-84
2022/12/23 06:42:03;;;;;;;2.83;1.90;;;;;;;-145.69;100.00;52614.72;5074658;28;20203;-84
2022/12/23 06:44:30;;;;;;;4.97;3.00;;;;;;;-145.69;100.00;52594.91;5070733;28;20210;-84
2022/12/23 06:46:56;;;;;;;8.07;4.13;;;;;;;-145.69;100.00;52614.72;5072799;28;20657;-84
2022/12/23 06:49:22;;;;;;;2.97;1.70;;;;;;;-145.69;100.00;52602.81;5072516;28;20206;-84
2022/12/23 06:51:50;;;;;;;5.70;1.70;;;;;;;-145.69;100.00;52612.72;5072750;28;20195;-85
2022/12/23 06:54:17;;;;;;;6.00;2.77;;;;;;;-145.69;100.00;52575.09;5072451;28;20199;-84
2022/12/23 06:56:43;;;;;;;4.67;2.60;;;;;;;-145.69;100.00;52612.72;5073223;28;20234;-84
2022/12/23 06:59:10;;;;;;;2.83;1.57;;;;;;;-145.69;100.00;52626.59;5073070;28;20210;-82
2022/12/23 07:01:36;;;;;;;4.80;1.73;;;;;;;-145.69;100.00;52596.88;5073920;28;20203;-82
2022/12/23 07:04:03;;;;;;;3.43;1.50;;;;;;;-145.69;100.00;52577.06;5073631;28;20202;-82
2022/12/23 07:06:29;;;;;;;3.97;2.13;;;;;;;-145.69;100.00;52535.47;5073228;28;20654;-83
2022/12/23 07:08:57;;;;;;;62.93;4.17;;;;;;;-145.69;100.00;52618.66;5073693;28;20210;-83
2022/12/23 07:11:24;;;;;;;2.10;1.70;;;;;;;-145.69;100.00;52614.72;5073074;28;20199;-84
2022/12/23 07:13:50;;;;;;;2.33;1.70;;;;;;;-145.69;100.00;52640.44;5073429;28;20214;-84
2022/12/23 07:16:17;;;;;;;2.07;1.60;;;;;;;-145.69;100.00;52596.88;5075860;28;20229;-83
2022/12/23 07:18:43;;;;;;;2.33;1.83;;;;;;;-145.69;100.00;52620.66;5076391;28;20203;-83
2022/12/23 07:21:10;;;;;;;2.50;1.77;;;;;;;-145.69;100.00;52602.81;5077127;28;20229;-83
2022/12/23 07:23:36;;;;;;;3.28;2.00;;;;;;;-145.69;100.00;52624.59;5077608;28;20203;-82
2022/12/23 07:26:04;;;;;;;3.73;1.47;;;;;;;-145.69;100.00;52598.84;5079883;28;20202;-82
2022/12/23 07:28:31;;;;;;;2.33;1.60;;;;;;;-145.69;100.00;52590.94;5080086;28;20291;-82
2022/12/23 07:30:57;;;;;;;3.25;1.60;;;;;;;-145.69;100.00;52634.50;5080516;28;20202;-82
2022/12/23 07:33:24;;;;;;;2.13;1.43;;;;;;;-145.69;100.00;52575.09;5078415;28;20225;-82
2022/12/23 07:35:50;;;;;;;1.77;1.20;;;;;;;-145.69;100.00;52618.66;5077335;28;20245;-81
2022/12/23 07:38:16;;;;;;;2.42;2.03;;;;;;;-145.69;100.00;52575.09;5078850;28;20198;-82
2022/12/23 07:40:43;;;;;;;1.47;1.30;;;;;;;-145.69;100.00;52583.00;5078378;28;20195;-82
2022/12/23 07:43:11;;;;;;;1.13;1.02;;;;;;;-145.69;100.00;52634.50;5078059;28;20199;-81
2022/12/23 07:45:37;;;;;;;2.67;1.37;;;;;;;-145.69;100.00;52624.59;5077191;28;20205;-82
2022/12/23 07:48:04;;;;;;;2.95;1.00;;;;;;;-145.69;100.00;52620.66;5077192;28;20206;-81
2022/12/23 07:50:30;;;;;;;1.27;0.80;;;;;;;-145.69;100.00;52610.75;5077357;28;20206;-82
2022/12/23 07:52:56;;;;;;;1.13;0.70;;;;;;;-145.69;100.00;52606.78;5077565;28;20204;-82
2022/12/23 07:55:23;;;;;;;4.22;0.90;;;;;;;-145.69;100.00;52614.72;5077152;28;20199;-82
2022/12/23 07:57:51;;;;;;;1.67;1.00;;;;;;;-145.69;100.00;52610.75;5077780;28;20225;-83
2022/12/23 08:00:20;;;;;;;0.63;0.60;;;;;;;-145.69;100.00;52610.75;5077165;28;20218;-83
2022/12/23 08:02:47;;;;;;;1.52;0.88;;;;;;;-145.69;100.00;52616.69;5077573;28;20199;-83
2022/12/23 08:05:15;;;;;;;0.83;0.70;;;;;;;-145.69;100.00;52618.66;5076838;28;20201;-83
2022/12/23 08:07:43;;;;;;;1.45;0.70;;;;;;;-145.69;100.00;52626.59;5075256;28;20525;-83
2022/12/23 08:10:11;;;;;;;1.77;0.90;;;;;;;-145.69;100.00;52586.97;5076980;28;20561;-83
2022/12/23 08:12:37;;;;;;;1.05;0.65;;;;;;;-145.69;100.00;52588.97;5074875;28;20202;-83
2022/12/23 08:15:05;;;;;;;0.40;0.40;;;;;;;-145.69;100.00;52596.88;5074544;28;20748;-83
2022/12/23 08:17:33;;;;;;;1.42;0.70;;;;;;;-145.69;100.00;52598.84;5075016;28;20696;-83
2022/12/23 08:19:59;;;;;;;1.15;0.40;;;;;;;-145.69;100.00;52604.81;5075073;28;20194;-84
2022/12/23 08:22:26;;;;;;;2.78;0.60;;;;;;;-145.69;100.00;52571.13;5075128;28;20203;-83
2022/12/23 08:24:52;;;;;;;0.50;0.50;;;;;;;-145.69;100.00;52577.06;5074679;28;20199;-83
2022/12/23 08:27:19;;;;;;;1.67;0.60;;;;;;;-145.69;100.00;52563.22;5075014;28;20202;-83
2022/12/23 08:29:45;;;;;;;0.50;0.50;;;;;;;-145.69;100.00;52581.03;5075057;28;20210;-82
2022/12/23 08:32:11;;;;;;;0.50;0.50;;;;;;;-145.69;100.00;52586.97;5075407;28;20205;-83
2022/12/23 08:34:40;;;;;;;0.40;0.40;;;;;;;-145.69;100.00;52585.00;5075390;28;20207;-83
2022/12/23 08:37:06;;;;;;;1.00;0.82;;;;;;;-145.69;100.00;52598.84;5075793;28;20237;-83
2022/12/23 08:39:33;;;;;;;2.10;0.80;;;;;;;-145.69;100.00;52581.03;5075487;28;20203;-82
2022/12/23 08:41:59;;;;;;;0.80;0.80;;;;;;;-145.69;100.00;52594.91;5076021;28;20393;-83
2022/12/23 08:44:26;;;;;;;0.75;0.75;;;;;;;-145.69;100.00;52646.41;5075007;28;20684;-84
2022/12/23 08:46:53;;;;;;;1.77;0.70;;;;;;;-145.69;100.00;52583.00;5075397;28;20286;-84
2022/12/23 08:49:20;;;;;;;1.58;0.77;;;;;;;-145.69;100.00;52586.97;5074308;28;20199;-84
2022/12/23 08:51:48;;;;;;;3.60;1.10;;;;;;;-145.69;100.00;52590.94;5073359;28;20206;-84
2022/12/23 08:54:14;;;;;;;1.42;1.05;;;;;;;-145.69;100.00;52594.91;5056740;28;20200;-82
2022/12/23 08:56:42;;;;;;;2.40;0.90;;;;;;;-145.69;100.00;52577.06;5054108;28;20223;-83
2022/12/23 08:59:12;;;;;;;1.25;0.73;;;;;;;-145.69;100.00;52600.84;5054003;28;20597;-83
2022/12/23 09:01:39;;;;;;;0.95;0.88;;;;;;;-145.69;100.00;52590.94;5053910;28;20254;-81
2022/12/23 09:04:06;;;;;;;1.77;1.02;;;;;;;-145.69;100.00;52583.00;5054032;28;20540;-82
2022/12/23 09:06:36;;;;;;;1.08;0.95;;;;;;;-145.69;100.00;52586.97;5067337;28;20610;-82
2022/12/23 09:09:05;;;;;;;2.05;0.90;;;;;;;-145.69;100.00;52598.84;5075412;28;20202;-81
2022/12/23 09:11:32;;;;;;;1.58;0.90;;;;;;;-145.69;100.00;52569.16;5075757;28;20202;-81
2022/12/23 09:13:59;;;;;;;8.82;1.00;;;;;;;-145.69;100.00;52604.81;5074812;28;20203;-84
2022/12/23 09:16:26;;;;;;;3.67;1.65;;;;;;;-145.69;100.00;52606.78;5074209;28;20229;-81
2022/12/23 09:18:53;;;;;;;1.35;1.02;;;;;;;-145.69;100.00;52626.59;5076583;28;20210;-82
2022/12/23 09:21:21;;;;;;;4.18;1.10;;;;;;;-145.69;100.00;52590.94;5074543;28;20592;-81
2022/12/23 09:23:49;;;;;;;1.13;0.90;;;;;;;-145.69;100.00;52632.53;5074626;28;20204;-82
2022/12/23 09:26:19;;;;;;;0.65;0.57;;;;;;;-145.69;100.00;52598.84;5074424;28;20207;-82
2022/12/23 09:28:46;;;;;;;1.00;0.65;;;;;;;-145.69;100.00;52590.94;5073849;28;20202;-83
2022/12/23 09:31:13;;;;;;;0.60;0.60;;;;;;;-145.69;100.00;52575.09;5074848;28;20202;-79
2022/12/23 09:33:40;;;;;;;0.98;0.50;;;;;;;-145.69;100.00;52594.91;5074089;28;20210;-81
2022/12/23 09:36:07;;;;;;;1.17;0.60;;;;;;;-145.69;100.00;52588.97;5072344;28;20230;-80
2022/12/23 09:38:34;;;;;;;0.50;0.50;;;;;;;-145.69;100.00;52614.72;5073234;28;20207;-80
2022/12/23 09:41:04;;;;;;;1.23;0.80;;;;;;;-145.69;100.00;52586.97;5073340;28;20486;-80
2022/12/23 09:43:41;;;;;;;0.68;0.65;;;;;;;-145.69;100.00;52579.06;5073239;28;20203;-80
2022/12/23 09:46:16;;;;;;;0.50;0.50;;;;;;;-145.69;100.00;52583.00;5072975;28;20203;-80
2022/12/23 09:48:50;;;;;;;1.27;0.70;;;;;;;-145.69;100.00;52567.16;5073218;28;20206;-80
2022/12/23 09:51:21;;;;;;;0.52;0.52;;;;;;;-145.69;100.00;52594.91;5072874;28;20206;-80
2022/12/23 09:53:56;;;;;;;0.93;0.80;;;;;;;-145.69;100.00;52590.94;5072911;28;20657;-80
2022/12/23 09:56:28;;;;;;;1.52;1.00;;;;;;;-145.69;100.00;52579.06;5072250;28;20952;-80
2022/12/23 09:59:06;;;;;;;143.10;50.42;;;;;;;-145.69;100.00;52616.69;5072839;28;20218;-80
2022/12/23 10:01:40;;;;;;;46.80;17.92;;;;;;;-145.69;100.00;52596.88;5072694;28;20191;-82
2022/12/23 10:04:31;;;;;;;11.23;4.20;;;;;;;-145.69;100.00;52594.91;5073002;28;20335;-82
2022/12/23 10:07:13;;;;;;;3.85;1.98;;;;;;;-145.69;100.00;52571.13;5072458;28;20667;-82
2022/12/23 10:09:42;;;;;;;2.95;1.83;;;;;;;-145.69;100.00;52567.16;5073195;28;20209;-82
2022/12/23 10:12:18;;;;;;;4.70;2.42;;;;;;;-145.69;100.00;52575.09;5072635;28;20218;-82
2022/12/23 10:14:50;;;;;;;1.90;1.58;;;;;;;-145.69;100.00;52602.81;5073378;28;20273;-82
2022/12/23 10:17:25;;;;;;;2.88;1.40;;;;;;;-145.69;100.00;52547.38;5073303;28;20233;-82
2022/12/23 10:19:57;;;;;;;1.52;0.80;;;;;;;-145.69;100.00;52604.81;5073993;28;20209;-83
2022/12/23 10:22:28;;;;;;;3.28;0.80;;;;;;;-145.69;100.00;52606.78;5074745;28;20282;-83
2022/12/23 10:24:57;;;;;;;0.77;0.70;;;;;;;-145.69;100.00;52590.94;5073942;28;20207;-84
2022/12/23 10:27:29;;;;;;;0.85;0.60;;;;;;;-145.69;100.00;52594.91;5073029;28;20202;-83
2022/12/23 10:30:01;;;;;;;3.65;1.08;;;;;;;-145.69;100.00;52575.09;5072905;28;20203;-84
2022/12/23 10:32:41;;;;;;;0.80;0.70;;;;;;;-145.69;100.00;52600.84;5072459;28;20686;-83
2022/12/23 10:35:14;;;;;;;2.90;1.00;;;;;;;-145.69;100.00;52598.84;5073442;28;20199;-83
2022/12/23 10:37:49;;;;;;;2.20;1.30;;;;;;;-145.69;100.00;52575.09;5072683;28;20790;-84
2022/12/23 10:40:23;;;;;;;3.33;1.60;;;;;;;-145.69;100.00;52585.00;5073040;28;20947;-84
2022/12/23 10:43:03;;;;;;;2.78;1.02;;;;;;;-145.69;100.00;52588.97;5073378;28;20205;-84
2022/12/23 10:45:45;;;;;;;3.40;1.40;;;;;;;-145.69;100.00;52596.88;5073362;28;20192;-84
2022/12/23 10:48:26;;;;;;;1.13;0.93;;;;;;;-145.69;100.00;52581.03;5072559;28;20438;-83
2022/12/23 10:50:59;;;;;;;1.00;0.80;;;;;;;-145.69;100.00;52598.84;5076640;28;20199;-84
2022/12/23 10:53:36;;;;;;;1.17;0.75;;;;;;;-145.69;100.00;52563.22;5071467;28;20210;-83
2022/12/23 10:56:04;;;;;;;0.82;0.80;;;;;;;-145.69;100.00;52563.22;5077063;28;20206;-84
2022/12/23 10:58:31;;;;;;;1.35;0.68;;;;;;;-145.69;100.00;52602.81;5076370;28;20229;-84
2022/12/23 11:01:02;;;;;;;1.15;0.70;;;;;;;-145.69;100.00;52600.84;5076963;28;20198;-85
2022/12/23 11:03:33;;;;;;;0.50;0.50;;;;;;;-145.69;100.00;52606.78;5075657;28;20678;-84
2022/12/23 11:06:01;;;;;;;1.85;1.15;;;;;;;-145.69;100.00;52586.97;5076969;28;20599;-84
2022/12/23 11:08:30;;;;;;;2.58;0.60;;;;;;;-145.69;100.00;52573.13;5076192;28;20203;-84
2022/12/23 11:10:59;;;;;;;0.95;0.77;;;;;;;-145.69;100.00;52616.69;5061725;28;20207;-84
2022/12/23 11:13:34;;;;;;;1.27;0.60;;;;;;;-145.69;100.00;52581.03;5076309;28;20291;-81
2022/12/23 11:16:14;;;;;;;2.75;0.60;;;;;;;-145.69;100.00;52555.28;5060062;28;20248;-83
2022/12/23 11:18:53;;;;;;;1.55;0.77;;;;;;;-145.69;100.00;52610.75;5069257;28;20248;-83
2022/12/23 11:21:20;;;;;;;0.90;0.50;;;;;;;-145.69;100.00;52559.25;5076405;28;20194;-84
2022/12/23 11:23:47;;;;;;;1.65;0.70;;;;;;;-145.69;100.00;52590.94;5077420;28;20203;-83
2022/12/23 11:26:18;;;;;;;2.58;0.68;;;;;;;-145.69;100.00;52557.28;5076369;28;20195;-82
2022/12/23 11:28:50;;;;;;;1.08;0.90;;;;;;;-145.69;100.00;52563.22;5075559;28;20391;-85
2022/12/23 11:31:26;;;;;;;1.90;0.70;;;;;;;-145.69;100.00;52571.13;5075770;28;20203;-84
2022/12/23 11:33:58;;;;;;;1.27;0.90;;;;;;;-145.69;100.00;52563.22;5075553;28;20194;-84
2022/12/23 11:36:26;;;;;;;0.68;0.68;;;;;;;-145.69;100.00;52563.22;5075454;28;20239;-84
2022/12/23 11:38:59;;;;;;;0.70;0.68;;;;;;;-145.69;100.00;52575.09;5075744;28;20253;-84
2022/12/23 11:41:30;;;;;;;0.85;0.80;;;;;;;-145.69;100.00;52592.91;5075435;28;20195;-84
2022/12/23 11:44:00;;;;;;;1.95;0.77;;;;;;;-145.69;100.00;52604.81;5075592;28;20238;-84
2022/12/23 11:46:30;;;;;;;1.15;0.90;;;;;;;-145.69;100.00;52583.00;5075389;28;20198;-85
2022/12/23 11:49:06;;;;;;;1.00;0.85;;;;;;;-145.69;100.00;52608.75;5075693;28;20209;-83
2022/12/23 11:51:32;;;;;;;1.25;1.02;;;;;;;-145.69;100.00;52577.06;5074941;28;20665;-83